sensor_id;sensor_type;location;lat;lon;timestamp;pressure;altitude;pressure_sealevel;temperature
18713;BMP280;9485;49.386;8.674;2024-01-11T00:04:13;101625.56;;;-1.46
18713;BMP280;9485;49.386;8.674;2024-01-11T00:09:39;101616.41;;;-1.57
18713;BMP280;9485;49.386;8.674;2024-01-11T00:14:59;101619.19;;;-1.57
18713;BMP280;9485;49.386;8.674;2024-01-11T00:20:20;101625.94;;;-1.51
18713;BMP280;9485;49.386;8.674;2024-01-11T00:25:41;101618.44;;;-1.54
18713;BMP280;9485;49.386;8.674;2024-01-11T00:31:02;101623.16;;;-1.54
18713;BMP280;9485;49.386;8.674;2024-01-11T00:36:23;101623.50;;;-1.63
18713;BMP280;9485;49.386;8.674;2024-01-11T00:41:44;101625.84;;;-1.68
18713;BMP280;9485;49.386;8.674;2024-01-11T00:47:05;101623.06;;;-1.68
18713;BMP280;9485;49.386;8.674;2024-01-11T00:52:25;101622.25;;;-1.72
18713;BMP280;9485;49.386;8.674;2024-01-11T00:57:47;101636.16;;;-1.65
18713;BMP280;9485;49.386;8.674;2024-01-11T01:03:07;101628.59;;;-1.68
18713;BMP280;9485;49.386;8.674;2024-01-11T01:08:28;101636.53;;;-1.63
18713;BMP280;9485;49.386;8.674;2024-01-11T01:13:50;101647.63;;;-1.63
18713;BMP280;9485;49.386;8.674;2024-01-11T01:19:10;101641.22;;;-1.74
18713;BMP280;9485;49.386;8.674;2024-01-11T01:24:31;101642.00;;;-1.74
18713;BMP280;9485;49.386;8.674;2024-01-11T01:29:53;101645.09;;;-1.82
18713;BMP280;9485;49.386;8.674;2024-01-11T01:35:14;101645.09;;;-1.86
18713;BMP280;9485;49.386;8.674;2024-01-11T01:40:35;101639.53;;;-1.89
18713;BMP280;9485;49.386;8.674;2024-01-11T01:45:59;101647.44;;;-1.88
18713;BMP280;9485;49.386;8.674;2024-01-11T01:51:20;101645.84;;;-1.92
18713;BMP280;9485;49.386;8.674;2024-01-11T01:56:41;101645.88;;;-1.89
18713;BMP280;9485;49.386;8.674;2024-01-11T02:02:05;101660.00;;;-1.97
18713;BMP280;9485;49.386;8.674;2024-01-11T02:07:25;101676.31;;;-1.89
18713;BMP280;9485;49.386;8.674;2024-01-11T02:12:46;101668.31;;;-1.97
18713;BMP280;9485;49.386;8.674;2024-01-11T02:18:08;101656.00;;;-2.03
18713;BMP280;9485;49.386;8.674;2024-01-11T02:23:30;101657.59;;;-2.02
18713;BMP280;9485;49.386;8.674;2024-01-11T02:28:52;101661.44;;;-2.14
18713;BMP280;9485;49.386;8.674;2024-01-11T02:34:12;101661.84;;;-2.15
18713;BMP280;9485;49.386;8.674;2024-01-11T02:39:33;101663.88;;;-2.05
18713;BMP280;9485;49.386;8.674;2024-01-11T02:44:55;101661.97;;;-2.01
18713;BMP280;9485;49.386;8.674;2024-01-11T02:50:16;101661.19;;;-1.98
18713;BMP280;9485;49.386;8.674;2024-01-11T02:55:36;101658.03;;;-2.00
18713;BMP280;9485;49.386;8.674;2024-01-11T03:00:58;101664.25;;;-2.10
18713;BMP280;9485;49.386;8.674;2024-01-11T03:06:18;101656.72;;;-2.13
18713;BMP280;9485;49.386;8.674;2024-01-11T03:11:41;101652.38;;;-2.14
18713;BMP280;9485;49.386;8.674;2024-01-11T03:17:03;101661.69;;;-2.29
18713;BMP280;9485;49.386;8.674;2024-01-11T03:22:23;101649.81;;;-2.29
18713;BMP280;9485;49.386;8.674;2024-01-11T03:27:44;101645.84;;;-2.32
18713;BMP280;9485;49.386;8.674;2024-01-11T03:33:06;101644.56;;;-2.41
18713;BMP280;9485;49.386;8.674;2024-01-11T03:38:27;101636.25;;;-2.45
18713;BMP280;9485;49.386;8.674;2024-01-11T03:43:47;101644.09;;;-2.47
18713;BMP280;9485;49.386;8.674;2024-01-11T03:49:09;101634.72;;;-2.39
18713;BMP280;9485;49.386;8.674;2024-01-11T03:54:29;101641.47;;;-2.33
18713;BMP280;9485;49.386;8.674;2024-01-11T03:59:50;101648.59;;;-2.35
18713;BMP280;9485;49.386;8.674;2024-01-11T04:05:12;101638.31;;;-2.35
18713;BMP280;9485;49.386;8.674;2024-01-11T04:10:32;101654.03;;;-2.42
18713;BMP280;9485;49.386;8.674;2024-01-11T04:15:53;101642.59;;;-2.44
18713;BMP280;9485;49.386;8.674;2024-01-11T04:21:22;101636.66;;;-2.43
18713;BMP280;9485;49.386;8.674;2024-01-11T04:26:43;101649.25;;;-2.49
18713;BMP280;9485;49.386;8.674;2024-01-11T04:32:04;101644.47;;;-2.52
18713;BMP280;9485;49.386;8.674;2024-01-11T04:37:26;101655.56;;;-2.48
18713;BMP280;9485;49.386;8.674;2024-01-11T04:42:46;101659.06;;;-2.55
18713;BMP280;9485;49.386;8.674;2024-01-11T04:48:07;101653.09;;;-2.57
18713;BMP280;9485;49.386;8.674;2024-01-11T04:53:28;101660.16;;;-2.63
18713;BMP280;9485;49.386;8.674;2024-01-11T04:58:49;101663.19;;;-2.71
18713;BMP280;9485;49.386;8.674;2024-01-11T05:04:10;101662.34;;;-2.79
18713;BMP280;9485;49.386;8.674;2024-01-11T05:09:32;101670.28;;;-2.74
18713;BMP280;9485;49.386;8.674;2024-01-11T05:14:52;101672.69;;;-2.72
18713;BMP280;9485;49.386;8.674;2024-01-11T05:20:13;101663.06;;;-2.82
18713;BMP280;9485;49.386;8.674;2024-01-11T05:25:35;101669.03;;;-2.80
18713;BMP280;9485;49.386;8.674;2024-01-11T05:30:55;101671.78;;;-2.80
18713;BMP280;9485;49.386;8.674;2024-01-11T05:36:15;101674.56;;;-2.80
18713;BMP280;9485;49.386;8.674;2024-01-11T05:41:37;101679.63;;;-2.85
18713;BMP280;9485;49.386;8.674;2024-01-11T05:46:58;101688.03;;;-2.75
18713;BMP280;9485;49.386;8.674;2024-01-11T05:52:18;101695.69;;;-2.65
18713;BMP280;9485;49.386;8.674;2024-01-11T05:57:41;101698.06;;;-2.63
18713;BMP280;9485;49.386;8.674;2024-01-11T06:03:01;101699.22;;;-2.64
18713;BMP280;9485;49.386;8.674;2024-01-11T06:08:21;101698.44;;;-2.65
18713;BMP280;9485;49.386;8.674;2024-01-11T06:13:43;101701.22;;;-2.65
18713;BMP280;9485;49.386;8.674;2024-01-11T06:19:04;101694.81;;;-2.72
18713;BMP280;9485;49.386;8.674;2024-01-11T06:24:26;101698.19;;;-2.86
18713;BMP280;9485;49.386;8.674;2024-01-11T06:29:48;101702.16;;;-2.83
18713;BMP280;9485;49.386;8.674;2024-01-11T06:35:08;101693.16;;;-2.77
18713;BMP280;9485;49.386;8.674;2024-01-11T06:40:29;101705.06;;;-2.73
18713;BMP280;9485;49.386;8.674;2024-01-11T06:45:51;101719.66;;;-2.76
18713;BMP280;9485;49.386;8.674;2024-01-11T06:51:14;101730.13;;;-2.88
18713;BMP280;9485;49.386;8.674;2024-01-11T06:56:35;101743.53;;;-2.90
18713;BMP280;9485;49.386;8.674;2024-01-11T07:01:57;101739.03;;;-3.01
18713;BMP280;9485;49.386;8.674;2024-01-11T07:07:18;101755.78;;;-3.17
18713;BMP280;9485;49.386;8.674;2024-01-11T07:12:39;101753.19;;;-3.06
18713;BMP280;9485;49.386;8.674;2024-01-11T07:18:03;101769.75;;;-3.06
18713;BMP280;9485;49.386;8.674;2024-01-11T07:23:24;101777.47;;;-2.93
18713;BMP280;9485;49.386;8.674;2024-01-11T07:28:44;101779.09;;;-2.89
18713;BMP280;9485;49.386;8.674;2024-01-11T07:34:06;101787.38;;;-2.89
18713;BMP280;9485;49.386;8.674;2024-01-11T07:39:27;101789.88;;;-2.80
18713;BMP280;9485;49.386;8.674;2024-01-11T07:44:50;101782.44;;;-2.76
18713;BMP280;9485;49.386;8.674;2024-01-11T07:50:12;101789.66;;;-2.68
18713;BMP280;9485;49.386;8.674;2024-01-11T07:55:32;101799.25;;;-2.59
18713;BMP280;9485;49.386;8.674;2024-01-11T08:00:53;101788.81;;;-2.43
18713;BMP280;9485;49.386;8.674;2024-01-11T08:06:15;101798.50;;;-2.26
18713;BMP280;9485;49.386;8.674;2024-01-11T08:11:36;101805.41;;;-2.10
18713;BMP280;9485;49.386;8.674;2024-01-11T08:16:56;101796.47;;;-1.97
18713;BMP280;9485;49.386;8.674;2024-01-11T08:22:19;101814.38;;;-1.87
18713;BMP280;9485;49.386;8.674;2024-01-11T08:27:39;101812.16;;;-1.71
18713;BMP280;9485;49.386;8.674;2024-01-11T08:33:00;101817.06;;;-1.54
18713;BMP280;9485;49.386;8.674;2024-01-11T08:38:23;101824.38;;;-1.36
18713;BMP280;9485;49.386;8.674;2024-01-11T08:43:44;101830.44;;;-1.24
18713;BMP280;9485;49.386;8.674;2024-01-11T08:49:05;101825.00;;;-1.10
18713;BMP280;9485;49.386;8.674;2024-01-11T08:54:26;101830.28;;;-0.91
18713;BMP280;9485;49.386;8.674;2024-01-11T08:59:47;101837.16;;;-0.71
18713;BMP280;9485;49.386;8.674;2024-01-11T09:05:08;101832.50;;;-0.57
18713;BMP280;9485;49.386;8.674;2024-01-11T09:10:30;101827.44;;;-0.37
18713;BMP280;9485;49.386;8.674;2024-01-11T09:15:50;101818.03;;;-0.12
18713;BMP280;9485;49.386;8.674;2024-01-11T09:21:11;101823.66;;;0.09
18713;BMP280;9485;49.386;8.674;2024-01-11T09:26:34;101820.59;;;0.42
18713;BMP280;9485;49.386;8.674;2024-01-11T09:31:55;101824.19;;;0.91
18713;BMP280;9485;49.386;8.674;2024-01-11T09:37:15;101814.63;;;1.27
18713;BMP280;9485;49.386;8.674;2024-01-11T09:42:38;101812.13;;;1.70
18713;BMP280;9485;49.386;8.674;2024-01-11T09:47:59;101820.69;;;2.11
18713;BMP280;9485;49.386;8.674;2024-01-11T09:53:22;101832.06;;;2.44
18713;BMP280;9485;49.386;8.674;2024-01-11T09:58:47;101828.38;;;3.08
18713;BMP280;9485;49.386;8.674;2024-01-11T10:04:09;101841.31;;;3.72
18713;BMP280;9485;49.386;8.674;2024-01-11T10:09:31;101852.16;;;4.30
18713;BMP280;9485;49.386;8.674;2024-01-11T10:14:53;101854.88;;;4.63
18713;BMP280;9485;49.386;8.674;2024-01-11T10:20:15;101858.09;;;4.88
18713;BMP280;9485;49.386;8.674;2024-01-11T10:25:36;101839.16;;;5.21
18713;BMP280;9485;49.386;8.674;2024-01-11T10:30:58;101830.31;;;5.65
18713;BMP280;9485;49.386;8.674;2024-01-11T10:36:18;101810.81;;;6.00
18713;BMP280;9485;49.386;8.674;2024-01-11T10:41:40;101800.44;;;6.52
18713;BMP280;9485;49.386;8.674;2024-01-11T10:47:09;101791.66;;;6.15
18713;BMP280;9485;49.386;8.674;2024-01-11T10:52:36;101818.41;;;6.39
18713;BMP280;9485;49.386;8.674;2024-01-11T10:58:01;101820.97;;;5.95
18713;BMP280;9485;49.386;8.674;2024-01-11T11:03:25;101829.16;;;5.43
18713;BMP280;9485;49.386;8.674;2024-01-11T11:08:49;101816.38;;;5.19
18713;BMP280;9485;49.386;8.674;2024-01-11T11:14:14;101806.50;;;5.12
18713;BMP280;9485;49.386;8.674;2024-01-11T11:19:37;101813.88;;;5.02
18713;BMP280;9485;49.386;8.674;2024-01-11T11:25:03;101803.09;;;4.78
18713;BMP280;9485;49.386;8.674;2024-01-11T11:30:25;101790.47;;;4.66
18713;BMP280;9485;49.386;8.674;2024-01-11T11:35:51;101781.69;;;4.64
18713;BMP280;9485;49.386;8.674;2024-01-11T11:41:12;101773.00;;;4.59
18713;BMP280;9485;49.386;8.674;2024-01-11T11:46:33;101766.25;;;4.30
18713;BMP280;9485;49.386;8.674;2024-01-11T11:51:56;101765.59;;;4.19
18713;BMP280;9485;49.386;8.674;2024-01-11T11:57:17;101753.94;;;3.98
18713;BMP280;9485;49.386;8.674;2024-01-11T12:02:39;101745.69;;;3.87
18713;BMP280;9485;49.386;8.674;2024-01-11T12:08:01;101760.19;;;3.79
18713;BMP280;9485;49.386;8.674;2024-01-11T12:13:24;101751.94;;;3.69
18713;BMP280;9485;49.386;8.674;2024-01-11T12:18:45;101752.91;;;3.55
18713;BMP280;9485;49.386;8.674;2024-01-11T12:24:07;101740.84;;;3.62
18713;BMP280;9485;49.386;8.674;2024-01-11T12:29:28;101728.50;;;3.59
18713;BMP280;9485;49.386;8.674;2024-01-11T12:34:50;101735.75;;;3.53
18713;BMP280;9485;49.386;8.674;2024-01-11T12:40:14;101744.00;;;3.64
18713;BMP280;9485;49.386;8.674;2024-01-11T12:45:35;101727.25;;;3.64
18713;BMP280;9485;49.386;8.674;2024-01-11T12:50:56;101724.78;;;3.69
18713;BMP280;9485;49.386;8.674;2024-01-11T12:56:18;101721.94;;;3.72
18713;BMP280;9485;49.386;8.674;2024-01-11T13:01:41;101722.22;;;3.81
18713;BMP280;9485;49.386;8.674;2024-01-11T13:07:02;101702.53;;;3.92
18713;BMP280;9485;49.386;8.674;2024-01-11T13:12:23;101707.97;;;4.02
18713;BMP280;9485;49.386;8.674;2024-01-11T13:17:44;101703.53;;;4.05
18713;BMP280;9485;49.386;8.674;2024-01-11T13:23:15;101701.50;;;4.05
18713;BMP280;9485;49.386;8.674;2024-01-11T13:28:38;101719.91;;;4.03
18713;BMP280;9485;49.386;8.674;2024-01-11T13:33:59;101717.97;;;4.00
18713;BMP280;9485;49.386;8.674;2024-01-11T13:39:20;101729.63;;;3.95
18713;BMP280;9485;49.386;8.674;2024-01-11T13:44:44;101738.38;;;3.97
18713;BMP280;9485;49.386;8.674;2024-01-11T13:50:06;101738.00;;;3.95
18713;BMP280;9485;49.386;8.674;2024-01-11T13:55:27;101748.88;;;3.89
18713;BMP280;9485;49.386;8.674;2024-01-11T14:00:50;101747.72;;;3.83
18713;BMP280;9485;49.386;8.674;2024-01-11T14:06:11;101741.47;;;3.76
18713;BMP280;9485;49.386;8.674;2024-01-11T14:11:32;101739.53;;;3.69
18713;BMP280;9485;49.386;8.674;2024-01-11T14:16:53;101732.44;;;3.65
18713;BMP280;9485;49.386;8.674;2024-01-11T14:22:14;101738.84;;;3.62
18713;BMP280;9485;49.386;8.674;2024-01-11T14:27:35;101748.03;;;3.59
18713;BMP280;9485;49.386;8.674;2024-01-11T14:32:57;101754.53;;;3.53
18713;BMP280;9485;49.386;8.674;2024-01-11T14:38:17;101760.56;;;3.48
18713;BMP280;9485;49.386;8.674;2024-01-11T14:43:39;101749.47;;;3.41
18713;BMP280;9485;49.386;8.674;2024-01-11T14:49:00;101745.56;;;3.31
18713;BMP280;9485;49.386;8.674;2024-01-11T14:54:23;101746.88;;;3.23
18713;BMP280;9485;49.386;8.674;2024-01-11T14:59:44;101748.94;;;3.16
18713;BMP280;9485;49.386;8.674;2024-01-11T15:05:07;101753.47;;;3.03
18713;BMP280;9485;49.386;8.674;2024-01-11T15:10:28;101745.63;;;2.91
18713;BMP280;9485;49.386;8.674;2024-01-11T15:15:49;101765.59;;;2.83
18713;BMP280;9485;49.386;8.674;2024-01-11T15:21:11;101750.22;;;2.68
18713;BMP280;9485;49.386;8.674;2024-01-11T15:26:32;101765.06;;;2.54
18713;BMP280;9485;49.386;8.674;2024-01-11T15:31:53;101766.34;;;2.43
18713;BMP280;9485;49.386;8.674;2024-01-11T15:37:14;101759.25;;;2.31
18713;BMP280;9485;49.386;8.674;2024-01-11T15:42:37;101764.13;;;2.17
18713;BMP280;9485;49.386;8.674;2024-01-11T15:47:58;101767.78;;;2.00
18713;BMP280;9485;49.386;8.674;2024-01-11T15:53:20;101768.66;;;1.90
18713;BMP280;9485;49.386;8.674;2024-01-11T15:58:41;101759.97;;;1.78
18713;BMP280;9485;49.386;8.674;2024-01-11T16:04:04;101761.19;;;1.66
18713;BMP280;9485;49.386;8.674;2024-01-11T16:09:25;101758.03;;;1.57
18713;BMP280;9485;49.386;8.674;2024-01-11T16:14:46;101764.44;;;1.51
18713;BMP280;9485;49.386;8.674;2024-01-11T16:20:09;101774.81;;;1.44
18713;BMP280;9485;49.386;8.674;2024-01-11T16:25:31;101773.25;;;1.36
18713;BMP280;9485;49.386;8.674;2024-01-11T16:30:52;101776.44;;;1.27
18713;BMP280;9485;49.386;8.674;2024-01-11T16:36:13;101778.47;;;1.20
18713;BMP280;9485;49.386;8.674;2024-01-11T16:41:35;101795.94;;;1.13
18713;BMP280;9485;49.386;8.674;2024-01-11T16:46:56;101803.09;;;1.07
18713;BMP280;9485;49.386;8.674;2024-01-11T16:52:18;101824.59;;;1.03
18713;BMP280;9485;49.386;8.674;2024-01-11T16:57:41;101813.06;;;0.98
18713;BMP280;9485;49.386;8.674;2024-01-11T17:03:01;101828.97;;;0.90
18713;BMP280;9485;49.386;8.674;2024-01-11T17:08:23;101820.22;;;0.81
18713;BMP280;9485;49.386;8.674;2024-01-11T17:13:45;101824.59;;;0.72
18713;BMP280;9485;49.386;8.674;2024-01-11T17:19:06;101801.53;;;0.61
18713;BMP280;9485;49.386;8.674;2024-01-11T17:24:26;101797.16;;;0.53
18713;BMP280;9485;49.386;8.674;2024-01-11T17:29:49;101814.22;;;0.48
18713;BMP280;9485;49.386;8.674;2024-01-11T17:35:11;101806.69;;;0.45
18713;BMP280;9485;49.386;8.674;2024-01-11T17:40:32;101817.41;;;0.43
18713;BMP280;9485;49.386;8.674;2024-01-11T17:45:55;101824.91;;;0.29
18713;BMP280;9485;49.386;8.674;2024-01-11T17:51:16;101815.00;;;0.28
18713;BMP280;9485;49.386;8.674;2024-01-11T17:56:39;101825.28;;;0.24
18713;BMP280;9485;49.386;8.674;2024-01-11T18:02:01;101829.25;;;0.16
18713;BMP280;9485;49.386;8.674;2024-01-11T18:07:23;101818.94;;;0.16
18713;BMP280;9485;49.386;8.674;2024-01-11T18:12:44;101810.97;;;0.18
18713;BMP280;9485;49.386;8.674;2024-01-11T18:18:08;101842.75;;;0.14
18713;BMP280;9485;49.386;8.674;2024-01-11T18:23:28;101825.66;;;0.08
18713;BMP280;9485;49.386;8.674;2024-01-11T18:28:48;101831.59;;;0.00
18713;BMP280;9485;49.386;8.674;2024-01-11T18:34:11;101843.06;;;-0.05
18713;BMP280;9485;49.386;8.674;2024-01-11T18:39:32;101833.13;;;-0.09
18713;BMP280;9485;49.386;8.674;2024-01-11T18:44:53;101829.09;;;-0.22
18713;BMP280;9485;49.386;8.674;2024-01-11T18:50:17;101832.28;;;-0.24
18713;BMP280;9485;49.386;8.674;2024-01-11T18:55:38;101821.56;;;-0.25
18713;BMP280;9485;49.386;8.674;2024-01-11T19:00:58;101821.91;;;-0.34
18713;BMP280;9485;49.386;8.674;2024-01-11T19:06:20;101821.91;;;-0.34
18713;BMP280;9485;49.386;8.674;2024-01-11T19:11:41;101827.88;;;-0.32
18713;BMP280;9485;49.386;8.674;2024-01-11T19:17:03;101843.31;;;-0.34
18713;BMP280;9485;49.386;8.674;2024-01-11T19:22:25;101838.53;;;-0.37
18713;BMP280;9485;49.386;8.674;2024-01-11T19:27:46;101833.34;;;-0.46
18713;BMP280;9485;49.386;8.674;2024-01-11T19:33:08;101838.09;;;-0.50
18713;BMP280;9485;49.386;8.674;2024-01-11T19:38:33;101835.31;;;-0.53
18713;BMP280;9485;49.386;8.674;2024-01-11T19:44:00;101851.50;;;-0.59
18713;BMP280;9485;49.386;8.674;2024-01-11T19:49:20;101850.69;;;-0.59
18713;BMP280;9485;49.386;8.674;2024-01-11T19:54:42;101847.50;;;-0.68
18713;BMP280;9485;49.386;8.674;2024-01-11T20:00:05;101844.75;;;-0.65
18713;BMP280;9485;49.386;8.674;2024-01-11T20:05:30;101845.53;;;-0.64
18713;BMP280;9485;49.386;8.674;2024-01-11T20:10:51;101862.94;;;-0.71
18713;BMP280;9485;49.386;8.674;2024-01-11T20:16:12;101867.28;;;-0.66
18713;BMP280;9485;49.386;8.674;2024-01-11T20:21:32;101862.16;;;-0.64
18713;BMP280;9485;49.386;8.674;2024-01-11T20:26:54;101868.47;;;-0.71
18713;BMP280;9485;49.386;8.674;2024-01-11T20:32:14;101877.94;;;-0.78
18713;BMP280;9485;49.386;8.674;2024-01-11T20:37:35;101882.66;;;-0.79
18713;BMP280;9485;49.386;8.674;2024-01-11T20:43:01;101888.16;;;-0.86
18713;BMP280;9485;49.386;8.674;2024-01-11T20:48:21;101874.63;;;-0.94
18713;BMP280;9485;49.386;8.674;2024-01-11T20:53:42;101877.38;;;-0.98
18713;BMP280;9485;49.386;8.674;2024-01-11T20:59:03;101880.50;;;-1.03
18713;BMP280;9485;49.386;8.674;2024-01-11T21:04:24;101875.22;;;-1.15
18713;BMP280;9485;49.386;8.674;2024-01-11T21:09:44;101856.94;;;-1.26
18713;BMP280;9485;49.386;8.674;2024-01-11T21:15:08;101859.25;;;-1.32
18713;BMP280;9485;49.386;8.674;2024-01-11T21:20:28;101862.13;;;-1.21
18713;BMP280;9485;49.386;8.674;2024-01-11T21:25:49;101866.44;;;-1.27
18713;BMP280;9485;49.386;8.674;2024-01-11T21:31:11;101854.13;;;-1.30
18713;BMP280;9485;49.386;8.674;2024-01-11T21:36:32;101855.72;;;-1.25
18713;BMP280;9485;49.386;8.674;2024-01-11T21:41:53;101855.75;;;-1.22
18713;BMP280;9485;49.386;8.674;2024-01-11T21:47:15;101861.66;;;-1.27
18713;BMP280;9485;49.386;8.674;2024-01-11T21:52:35;101859.69;;;-1.30
18713;BMP280;9485;49.386;8.674;2024-01-11T21:57:56;101872.69;;;-1.34
18713;BMP280;9485;49.386;8.674;2024-01-11T22:03:18;101859.19;;;-1.39
18713;BMP280;9485;49.386;8.674;2024-01-11T22:08:39;101862.31;;;-1.44
18713;BMP280;9485;49.386;8.674;2024-01-11T22:14:00;101864.59;;;-1.52
18713;BMP280;9485;49.386;8.674;2024-01-11T22:19:23;101857.50;;;-1.50
18713;BMP280;9485;49.386;8.674;2024-01-11T22:24:44;101870.22;;;-1.46
18713;BMP280;9485;49.386;8.674;2024-01-11T22:30:06;101885.66;;;-1.45
18713;BMP280;9485;49.386;8.674;2024-01-11T22:35:28;101897.88;;;-1.49
18713;BMP280;9485;49.386;8.674;2024-01-11T22:40:48;101887.22;;;-1.47
18713;BMP280;9485;49.386;8.674;2024-01-11T22:46:09;101892.78;;;-1.44
18713;BMP280;9485;49.386;8.674;2024-01-11T22:51:31;101900.28;;;-1.44
18713;BMP280;9485;49.386;8.674;2024-01-11T22:56:51;101897.09;;;-1.46
18713;BMP280;9485;49.386;8.674;2024-01-11T23:02:15;101888.69;;;-1.56
18713;BMP280;9485;49.386;8.674;2024-01-11T23:07:39;101883.44;;;-1.65
18713;BMP280;9485;49.386;8.674;2024-01-11T23:13:00;101875.06;;;-1.72
18713;BMP280;9485;49.386;8.674;2024-01-11T23:18:22;101872.13;;;-1.86
18713;BMP280;9485;49.386;8.674;2024-01-11T23:23:45;101877.28;;;-1.84
18713;BMP280;9485;49.386;8.674;2024-01-11T23:29:06;101876.16;;;-1.80
18713;BMP280;9485;49.386;8.674;2024-01-11T23:34:26;101869.53;;;-1.72
18713;BMP280;9485;49.386;8.674;2024-01-11T23:39:48;101878.97;;;-1.76
18713;BMP280;9485;49.386;8.674;2024-01-11T23:45:09;101881.69;;;-1.80
18713;BMP280;9485;49.386;8.674;2024-01-11T23:50:30;101883.16;;;-1.89
18713;BMP280;9485;49.386;8.674;2024-01-11T23:55:52;101878.72;;;-1.97
